sensor_id;sensor_type;location;lat;lon;timestamp;P1;durP1;ratioP1;P2;durP2;ratioP2
72974;SDS011;61166;54.228;37.632;2023-08-20T00:00:52;475.70;;;160.85;;
72974;SDS011;61166;54.228;37.632;2023-08-20T00:03:19;482.63;;;163.38;;
72974;SDS011;61166;54.228;37.632;2023-08-20T00:05:45;476.73;;;160.40;;
72974;SDS011;61166;54.228;37.632;2023-08-20T00:08:12;468.05;;;157.77;;
72974;SDS011;61166;54.228;37.632;2023-08-20T00:10:38;471.87;;;158.93;;
72974;SDS011;61166;54.228;37.632;2023-08-20T00:13:05;470.42;;;159.05;;
72974;SDS011;61166;54.228;37.632;2023-08-20T00:15:31;476.63;;;163.43;;
72974;SDS011;61166;54.228;37.632;2023-08-20T00:17:58;468.35;;;159.13;;
72974;SDS011;61166;54.228;37.632;2023-08-20T00:20:25;467.40;;;158.80;;
72974;SDS011;61166;54.228;37.632;2023-08-20T00:22:51;469.87;;;159.13;;
72974;SDS011;61166;54.228;37.632;2023-08-20T00:25:18;467.08;;;157.85;;
72974;SDS011;61166;54.228;37.632;2023-08-20T00:27:45;465.52;;;157.05;;
72974;SDS011;61166;54.228;37.632;2023-08-20T00:30:11;431.17;;;148.02;;
72974;SDS011;61166;54.228;37.632;2023-08-20T00:32:38;416.58;;;145.05;;
72974;SDS011;61166;54.228;37.632;2023-08-20T00:35:04;411.83;;;144.07;;
72974;SDS011;61166;54.228;37.632;2023-08-20T00:37:31;423.20;;;147.88;;
72974;SDS011;61166;54.228;37.632;2023-08-20T00:39:58;418.05;;;146.30;;
72974;SDS011;61166;54.228;37.632;2023-08-20T00:42:25;431.42;;;149.88;;
72974;SDS011;61166;54.228;37.632;2023-08-20T00:44:52;439.40;;;152.60;;
72974;SDS011;61166;54.228;37.632;2023-08-20T00:47:18;429.77;;;149.57;;
72974;SDS011;61166;54.228;37.632;2023-08-20T00:49:45;435.67;;;151.77;;
72974;SDS011;61166;54.228;37.632;2023-08-20T00:52:12;433.27;;;149.82;;
72974;SDS011;61166;54.228;37.632;2023-08-20T00:54:40;424.35;;;147.40;;
72974;SDS011;61166;54.228;37.632;2023-08-20T00:57:07;414.20;;;145.20;;
72974;SDS011;61166;54.228;37.632;2023-08-20T00:59:34;414.10;;;144.70;;
72974;SDS011;61166;54.228;37.632;2023-08-20T01:02:00;415.02;;;145.57;;
72974;SDS011;61166;54.228;37.632;2023-08-20T01:04:28;474.85;;;163.18;;
72974;SDS011;61166;54.228;37.632;2023-08-20T01:12:11;428.73;;;147.90;;
72974;SDS011;61166;54.228;37.632;2023-08-20T01:14:40;419.88;;;145.32;;
72974;SDS011;61166;54.228;37.632;2023-08-20T01:17:06;419.10;;;146.90;;
72974;SDS011;61166;54.228;37.632;2023-08-20T01:19:33;421.58;;;145.25;;
72974;SDS011;61166;54.228;37.632;2023-08-20T01:29:49;430.00;;;150.95;;
72974;SDS011;61166;54.228;37.632;2023-08-20T01:32:15;433.15;;;150.60;;
72974;SDS011;61166;54.228;37.632;2023-08-20T01:34:42;433.70;;;150.48;;
72974;SDS011;61166;54.228;37.632;2023-08-20T01:37:09;440.73;;;153.70;;
72974;SDS011;61166;54.228;37.632;2023-08-20T01:39:35;442.92;;;152.75;;
72974;SDS011;61166;54.228;37.632;2023-08-20T01:42:02;442.23;;;153.85;;
72974;SDS011;61166;54.228;37.632;2023-08-20T01:44:28;443.70;;;153.52;;
72974;SDS011;61166;54.228;37.632;2023-08-20T01:46:55;447.48;;;153.82;;
72974;SDS011;61166;54.228;37.632;2023-08-20T01:49:21;439.23;;;151.33;;
72974;SDS011;61166;54.228;37.632;2023-08-20T01:51:48;444.90;;;152.63;;
72974;SDS011;61166;54.228;37.632;2023-08-20T01:54:14;449.23;;;155.30;;
72974;SDS011;61166;54.228;37.632;2023-08-20T01:56:41;444.42;;;152.93;;
72974;SDS011;61166;54.228;37.632;2023-08-20T01:59:07;440.75;;;152.80;;
72974;SDS011;61166;54.228;37.632;2023-08-20T02:01:34;446.87;;;154.40;;
72974;SDS011;61166;54.228;37.632;2023-08-20T02:04:00;449.30;;;153.82;;
72974;SDS011;61166;54.228;37.632;2023-08-20T02:06:26;449.83;;;154.55;;
72974;SDS011;61166;54.228;37.632;2023-08-20T02:08:53;445.60;;;153.27;;
72974;SDS011;61166;54.228;37.632;2023-08-20T02:11:19;454.80;;;155.80;;
72974;SDS011;61166;54.228;37.632;2023-08-20T02:13:46;450.73;;;152.43;;
72974;SDS011;61166;54.228;37.632;2023-08-20T02:16:12;447.83;;;154.07;;
72974;SDS011;61166;54.228;37.632;2023-08-20T02:18:39;456.77;;;157.05;;
72974;SDS011;61166;54.228;37.632;2023-08-20T02:21:05;457.60;;;155.82;;
72974;SDS011;61166;54.228;37.632;2023-08-20T02:23:32;455.13;;;155.82;;
72974;SDS011;61166;54.228;37.632;2023-08-20T02:25:58;465.30;;;159.77;;
72974;SDS011;61166;54.228;37.632;2023-08-20T02:28:24;468.55;;;160.77;;
72974;SDS011;61166;54.228;37.632;2023-08-20T02:30:51;476.55;;;164.38;;
72974;SDS011;61166;54.228;37.632;2023-08-20T02:33:17;478.73;;;166.13;;
72974;SDS011;61166;54.228;37.632;2023-08-20T02:35:44;472.38;;;160.73;;
72974;SDS011;61166;54.228;37.632;2023-08-20T02:38:10;466.43;;;159.30;;
72974;SDS011;61166;54.228;37.632;2023-08-20T02:40:40;482.33;;;166.38;;
72974;SDS011;61166;54.228;37.632;2023-08-20T02:43:07;480.25;;;165.75;;
72974;SDS011;61166;54.228;37.632;2023-08-20T02:45:39;486.65;;;167.50;;
72974;SDS011;61166;54.228;37.632;2023-08-20T02:48:05;497.05;;;171.82;;
72974;SDS011;61166;54.228;37.632;2023-08-20T02:50:32;493.33;;;169.13;;
72974;SDS011;61166;54.228;37.632;2023-08-20T02:52:58;498.92;;;171.32;;
72974;SDS011;61166;54.228;37.632;2023-08-20T02:55:25;501.33;;;172.80;;
72974;SDS011;61166;54.228;37.632;2023-08-20T02:57:51;499.23;;;171.52;;
72974;SDS011;61166;54.228;37.632;2023-08-20T03:00:18;510.05;;;177.70;;
72974;SDS011;61166;54.228;37.632;2023-08-20T03:02:45;504.87;;;174.57;;
72974;SDS011;61166;54.228;37.632;2023-08-20T03:05:11;500.00;;;170.60;;
72974;SDS011;61166;54.228;37.632;2023-08-20T03:07:38;495.00;;;172.38;;
72974;SDS011;61166;54.228;37.632;2023-08-20T03:10:04;481.58;;;162.85;;
72974;SDS011;61166;54.228;37.632;2023-08-20T03:12:31;475.98;;;162.35;;
72974;SDS011;61166;54.228;37.632;2023-08-20T03:14:59;469.50;;;158.70;;
72974;SDS011;61166;54.228;37.632;2023-08-20T03:17:26;468.95;;;159.65;;
72974;SDS011;61166;54.228;37.632;2023-08-20T03:19:56;427.38;;;149.77;;
72974;SDS011;61166;54.228;37.632;2023-08-20T03:22:25;413.95;;;145.93;;
72974;SDS011;61166;54.228;37.632;2023-08-20T03:24:53;413.27;;;144.82;;
72974;SDS011;61166;54.228;37.632;2023-08-20T03:27:20;402.30;;;143.27;;
72974;SDS011;61166;54.228;37.632;2023-08-20T03:29:46;396.83;;;141.75;;
72974;SDS011;61166;54.228;37.632;2023-08-20T03:32:13;398.00;;;142.82;;
72974;SDS011;61166;54.228;37.632;2023-08-20T03:34:40;396.13;;;141.70;;
72974;SDS011;61166;54.228;37.632;2023-08-20T03:37:06;403.13;;;144.07;;
72974;SDS011;61166;54.228;37.632;2023-08-20T03:39:33;452.07;;;154.07;;
72974;SDS011;61166;54.228;37.632;2023-08-20T03:41:59;496.00;;;170.82;;
72974;SDS011;61166;54.228;37.632;2023-08-20T03:44:26;484.83;;;165.00;;
72974;SDS011;61166;54.228;37.632;2023-08-20T03:46:53;483.88;;;163.40;;
72974;SDS011;61166;54.228;37.632;2023-08-20T03:49:19;481.50;;;162.55;;
72974;SDS011;61166;54.228;37.632;2023-08-20T03:51:46;484.17;;;162.57;;
72974;SDS011;61166;54.228;37.632;2023-08-20T03:54:12;477.75;;;161.23;;
72974;SDS011;61166;54.228;37.632;2023-08-20T03:56:39;477.80;;;161.05;;
72974;SDS011;61166;54.228;37.632;2023-08-20T03:59:06;477.48;;;160.43;;
72974;SDS011;61166;54.228;37.632;2023-08-20T04:01:32;475.70;;;159.35;;
72974;SDS011;61166;54.228;37.632;2023-08-20T04:03:59;468.33;;;157.60;;
72974;SDS011;61166;54.228;37.632;2023-08-20T04:06:26;472.08;;;157.65;;
72974;SDS011;61166;54.228;37.632;2023-08-20T04:08:53;471.45;;;158.98;;
72974;SDS011;61166;54.228;37.632;2023-08-20T04:11:19;478.52;;;159.25;;
72974;SDS011;61166;54.228;37.632;2023-08-20T04:13:47;483.90;;;162.88;;
72974;SDS011;61166;54.228;37.632;2023-08-20T04:16:13;488.73;;;164.83;;
72974;SDS011;61166;54.228;37.632;2023-08-20T04:18:40;483.02;;;161.90;;
72974;SDS011;61166;54.228;37.632;2023-08-20T04:21:07;486.00;;;164.98;;
72974;SDS011;61166;54.228;37.632;2023-08-20T04:23:33;487.65;;;165.40;;
72974;SDS011;61166;54.228;37.632;2023-08-20T04:26:00;486.10;;;164.00;;
72974;SDS011;61166;54.228;37.632;2023-08-20T04:28:26;494.10;;;168.20;;
72974;SDS011;61166;54.228;37.632;2023-08-20T04:30:53;495.70;;;169.60;;
72974;SDS011;61166;54.228;37.632;2023-08-20T04:33:20;493.80;;;169.25;;
72974;SDS011;61166;54.228;37.632;2023-08-20T04:35:48;489.33;;;167.82;;
72974;SDS011;61166;54.228;37.632;2023-08-20T04:38:15;503.98;;;183.15;;
72974;SDS011;61166;54.228;37.632;2023-08-20T04:40:41;493.17;;;169.20;;
72974;SDS011;61166;54.228;37.632;2023-08-20T04:43:08;491.17;;;168.07;;
72974;SDS011;61166;54.228;37.632;2023-08-20T04:45:34;486.05;;;165.25;;
72974;SDS011;61166;54.228;37.632;2023-08-20T04:48:01;486.23;;;166.18;;
72974;SDS011;61166;54.228;37.632;2023-08-20T04:50:28;489.52;;;167.95;;
72974;SDS011;61166;54.228;37.632;2023-08-20T04:52:54;485.17;;;165.90;;
72974;SDS011;61166;54.228;37.632;2023-08-20T04:55:21;485.30;;;164.23;;
72974;SDS011;61166;54.228;37.632;2023-08-20T04:57:47;487.35;;;166.80;;
72974;SDS011;61166;54.228;37.632;2023-08-20T05:00:14;485.85;;;166.25;;
72974;SDS011;61166;54.228;37.632;2023-08-20T05:02:41;483.52;;;164.27;;
72974;SDS011;61166;54.228;37.632;2023-08-20T05:05:07;487.00;;;166.13;;
72974;SDS011;61166;54.228;37.632;2023-08-20T05:07:34;485.77;;;165.32;;
72974;SDS011;61166;54.228;37.632;2023-08-20T05:10:01;489.85;;;167.52;;
72974;SDS011;61166;54.228;37.632;2023-08-20T05:12:27;482.58;;;164.43;;
72974;SDS011;61166;54.228;37.632;2023-08-20T05:14:54;485.40;;;165.30;;
72974;SDS011;61166;54.228;37.632;2023-08-20T05:17:21;482.27;;;165.23;;
72974;SDS011;61166;54.228;37.632;2023-08-20T05:19:48;483.00;;;164.85;;
72974;SDS011;61166;54.228;37.632;2023-08-20T05:22:14;484.45;;;163.90;;
72974;SDS011;61166;54.228;37.632;2023-08-20T05:24:41;480.63;;;163.43;;
72974;SDS011;61166;54.228;37.632;2023-08-20T05:27:08;477.95;;;161.80;;
72974;SDS011;61166;54.228;37.632;2023-08-20T05:29:36;478.53;;;162.07;;
72974;SDS011;61166;54.228;37.632;2023-08-20T05:32:03;477.55;;;163.57;;
72974;SDS011;61166;54.228;37.632;2023-08-20T05:34:30;477.20;;;162.27;;
72974;SDS011;61166;54.228;37.632;2023-08-20T05:36:57;472.25;;;159.95;;
72974;SDS011;61166;54.228;37.632;2023-08-20T05:39:23;475.35;;;162.73;;
72974;SDS011;61166;54.228;37.632;2023-08-20T05:41:50;473.00;;;159.97;;
72974;SDS011;61166;54.228;37.632;2023-08-20T05:44:19;463.90;;;156.82;;
72974;SDS011;61166;54.228;37.632;2023-08-20T05:46:46;462.80;;;158.75;;
72974;SDS011;61166;54.228;37.632;2023-08-20T05:49:15;465.50;;;158.75;;
72974;SDS011;61166;54.228;37.632;2023-08-20T05:51:42;465.73;;;162.02;;
72974;SDS011;61166;54.228;37.632;2023-08-20T05:54:09;460.57;;;157.60;;
72974;SDS011;61166;54.228;37.632;2023-08-20T05:56:36;454.17;;;155.15;;
72974;SDS011;61166;54.228;37.632;2023-08-20T05:59:03;459.88;;;157.43;;
72974;SDS011;61166;54.228;37.632;2023-08-20T06:01:31;457.65;;;157.93;;
72974;SDS011;61166;54.228;37.632;2023-08-20T06:03:57;456.65;;;160.25;;
72974;SDS011;61166;54.228;37.632;2023-08-20T06:06:24;444.70;;;157.40;;
72974;SDS011;61166;54.228;37.632;2023-08-20T06:08:50;423.48;;;152.88;;
72974;SDS011;61166;54.228;37.632;2023-08-20T06:11:34;388.27;;;148.43;;
72974;SDS011;61166;54.228;37.632;2023-08-20T06:14:00;352.58;;;141.18;;
72974;SDS011;61166;54.228;37.632;2023-08-20T06:16:27;289.73;;;125.65;;
72974;SDS011;61166;54.228;37.632;2023-08-20T06:18:53;242.80;;;115.63;;
72974;SDS011;61166;54.228;37.632;2023-08-20T06:21:22;207.15;;;107.53;;
72974;SDS011;61166;54.228;37.632;2023-08-20T06:23:49;190.10;;;105.00;;
72974;SDS011;61166;54.228;37.632;2023-08-20T06:26:15;180.32;;;100.15;;
72974;SDS011;61166;54.228;37.632;2023-08-20T06:28:42;160.02;;;93.55;;
72974;SDS011;61166;54.228;37.632;2023-08-20T06:31:08;200.23;;;105.13;;
72974;SDS011;61166;54.228;37.632;2023-08-20T06:33:35;194.88;;;103.10;;
72974;SDS011;61166;54.228;37.632;2023-08-20T06:36:01;212.05;;;109.43;;
72974;SDS011;61166;54.228;37.632;2023-08-20T06:38:28;209.10;;;108.75;;
72974;SDS011;61166;54.228;37.632;2023-08-20T06:40:55;259.50;;;121.97;;
72974;SDS011;61166;54.228;37.632;2023-08-20T06:43:22;246.77;;;117.10;;
72974;SDS011;61166;54.228;37.632;2023-08-20T06:45:49;242.82;;;119.47;;
72974;SDS011;61166;54.228;37.632;2023-08-20T06:48:15;231.13;;;117.05;;
72974;SDS011;61166;54.228;37.632;2023-08-20T06:50:42;224.88;;;115.05;;
72974;SDS011;61166;54.228;37.632;2023-08-20T06:53:08;227.10;;;114.75;;
72974;SDS011;61166;54.228;37.632;2023-08-20T06:55:35;208.20;;;109.67;;
72974;SDS011;61166;54.228;37.632;2023-08-20T06:58:01;197.90;;;108.40;;
72974;SDS011;61166;54.228;37.632;2023-08-20T07:00:28;201.32;;;111.57;;
72974;SDS011;61166;54.228;37.632;2023-08-20T07:02:55;165.05;;;99.10;;
72974;SDS011;61166;54.228;37.632;2023-08-20T07:05:21;152.65;;;94.57;;
72974;SDS011;61166;54.228;37.632;2023-08-20T07:07:48;153.83;;;94.63;;
72974;SDS011;61166;54.228;37.632;2023-08-20T07:10:14;154.68;;;95.97;;
72974;SDS011;61166;54.228;37.632;2023-08-20T07:12:41;145.90;;;95.10;;
72974;SDS011;61166;54.228;37.632;2023-08-20T07:15:08;137.40;;;90.05;;
72974;SDS011;61166;54.228;37.632;2023-08-20T07:17:34;130.45;;;88.85;;
72974;SDS011;61166;54.228;37.632;2023-08-20T07:20:01;127.23;;;86.37;;
72974;SDS011;61166;54.228;37.632;2023-08-20T07:22:28;121.60;;;85.38;;
72974;SDS011;61166;54.228;37.632;2023-08-20T07:24:55;118.72;;;86.22;;
72974;SDS011;61166;54.228;37.632;2023-08-20T07:27:21;109.05;;;79.82;;
72974;SDS011;61166;54.228;37.632;2023-08-20T07:29:48;128.27;;;87.05;;
72974;SDS011;61166;54.228;37.632;2023-08-20T07:32:14;111.03;;;80.53;;
72974;SDS011;61166;54.228;37.632;2023-08-20T07:34:41;103.40;;;77.07;;
72974;SDS011;61166;54.228;37.632;2023-08-20T07:37:07;91.07;;;71.10;;
72974;SDS011;61166;54.228;37.632;2023-08-20T07:39:34;108.05;;;76.60;;
72974;SDS011;61166;54.228;37.632;2023-08-20T07:42:00;91.65;;;69.82;;
72974;SDS011;61166;54.228;37.632;2023-08-20T07:44:27;89.20;;;68.97;;
72974;SDS011;61166;54.228;37.632;2023-08-20T07:46:54;96.95;;;72.00;;
72974;SDS011;61166;54.228;37.632;2023-08-20T07:49:20;86.35;;;67.15;;
72974;SDS011;61166;54.228;37.632;2023-08-20T07:51:47;80.10;;;63.67;;
72974;SDS011;61166;54.228;37.632;2023-08-20T07:54:13;74.38;;;58.88;;
72974;SDS011;61166;54.228;37.632;2023-08-20T07:56:40;58.80;;;47.30;;
72974;SDS011;61166;54.228;37.632;2023-08-20T07:59:07;65.60;;;46.88;;
72974;SDS011;61166;54.228;37.632;2023-08-20T08:01:34;58.13;;;39.90;;
72974;SDS011;61166;54.228;37.632;2023-08-20T08:04:00;48.10;;;29.88;;
72974;SDS011;61166;54.228;37.632;2023-08-20T08:06:27;50.22;;;29.08;;
72974;SDS011;61166;54.228;37.632;2023-08-20T08:08:54;50.50;;;29.20;;
72974;SDS011;61166;54.228;37.632;2023-08-20T08:11:20;49.20;;;28.65;;
72974;SDS011;61166;54.228;37.632;2023-08-20T08:13:47;49.05;;;30.05;;
72974;SDS011;61166;54.228;37.632;2023-08-20T08:16:13;49.85;;;28.90;;
72974;SDS011;61166;54.228;37.632;2023-08-20T08:18:40;50.90;;;28.35;;
72974;SDS011;61166;54.228;37.632;2023-08-20T08:21:06;50.43;;;27.23;;
72974;SDS011;61166;54.228;37.632;2023-08-20T08:23:33;44.90;;;25.70;;
72974;SDS011;61166;54.228;37.632;2023-08-20T08:26:00;47.47;;;28.80;;
72974;SDS011;61166;54.228;37.632;2023-08-20T08:28:26;44.80;;;26.38;;
72974;SDS011;61166;54.228;37.632;2023-08-20T08:30:53;43.38;;;23.90;;
72974;SDS011;61166;54.228;37.632;2023-08-20T08:33:19;39.73;;;23.90;;
72974;SDS011;61166;54.228;37.632;2023-08-20T08:35:46;44.85;;;25.70;;
72974;SDS011;61166;54.228;37.632;2023-08-20T08:38:12;39.45;;;26.10;;
72974;SDS011;61166;54.228;37.632;2023-08-20T08:40:39;37.45;;;22.73;;
72974;SDS011;61166;54.228;37.632;2023-08-20T08:43:07;43.50;;;25.58;;
72974;SDS011;61166;54.228;37.632;2023-08-20T08:45:36;40.23;;;22.80;;
72974;SDS011;61166;54.228;37.632;2023-08-20T08:48:02;44.70;;;26.02;;
72974;SDS011;61166;54.228;37.632;2023-08-20T08:50:31;47.75;;;29.35;;
72974;SDS011;61166;54.228;37.632;2023-08-20T08:52:58;43.08;;;24.40;;
72974;SDS011;61166;54.228;37.632;2023-08-20T08:55:25;77.75;;;46.50;;
72974;SDS011;61166;54.228;37.632;2023-08-20T08:57:52;50.80;;;27.20;;
72974;SDS011;61166;54.228;37.632;2023-08-20T09:00:19;41.88;;;23.73;;
72974;SDS011;61166;54.228;37.632;2023-08-20T09:02:45;47.95;;;27.85;;
72974;SDS011;61166;54.228;37.632;2023-08-20T09:05:15;50.53;;;29.00;;
72974;SDS011;61166;54.228;37.632;2023-08-20T09:07:42;46.15;;;26.15;;
72974;SDS011;61166;54.228;37.632;2023-08-20T09:10:10;50.03;;;27.10;;
72974;SDS011;61166;54.228;37.632;2023-08-20T09:12:36;47.92;;;27.30;;
72974;SDS011;61166;54.228;37.632;2023-08-20T09:15:03;39.25;;;24.75;;
72974;SDS011;61166;54.228;37.632;2023-08-20T09:17:36;39.55;;;23.08;;
72974;SDS011;61166;54.228;37.632;2023-08-20T09:20:03;41.97;;;24.48;;
72974;SDS011;61166;54.228;37.632;2023-08-20T09:22:30;43.23;;;23.80;;
72974;SDS011;61166;54.228;37.632;2023-08-20T09:24:57;46.17;;;25.65;;
72974;SDS011;61166;54.228;37.632;2023-08-20T09:27:23;43.25;;;25.55;;
72974;SDS011;61166;54.228;37.632;2023-08-20T09:29:51;45.70;;;25.67;;
72974;SDS011;61166;54.228;37.632;2023-08-20T09:34:48;41.97;;;23.73;;
72974;SDS011;61166;54.228;37.632;2023-08-20T09:37:16;44.97;;;25.23;;
72974;SDS011;61166;54.228;37.632;2023-08-20T09:39:44;36.50;;;22.40;;
72974;SDS011;61166;54.228;37.632;2023-08-20T09:42:11;37.85;;;20.80;;
72974;SDS011;61166;54.228;37.632;2023-08-20T09:44:40;37.85;;;22.50;;
72974;SDS011;61166;54.228;37.632;2023-08-20T09:47:09;38.80;;;21.37;;
72974;SDS011;61166;54.228;37.632;2023-08-20T09:49:40;50.45;;;26.17;;
72974;SDS011;61166;54.228;37.632;2023-08-20T09:52:08;49.83;;;28.48;;
72974;SDS011;61166;54.228;37.632;2023-08-20T09:55:21;51.42;;;27.50;;
72974;SDS011;61166;54.228;37.632;2023-08-20T09:57:35;50.83;;;28.40;;
72974;SDS011;61166;54.228;37.632;2023-08-20T10:00:05;50.37;;;27.03;;
72974;SDS011;61166;54.228;37.632;2023-08-20T10:02:33;43.88;;;24.75;;
72974;SDS011;61166;54.228;37.632;2023-08-20T10:05:00;37.20;;;22.05;;
72974;SDS011;61166;54.228;37.632;2023-08-20T10:07:29;46.92;;;24.50;;
72974;SDS011;61166;54.228;37.632;2023-08-20T10:09:55;80.95;;;64.10;;
72974;SDS011;61166;54.228;37.632;2023-08-20T10:12:23;119.67;;;95.13;;
72974;SDS011;61166;54.228;37.632;2023-08-20T10:14:50;101.82;;;74.35;;
72974;SDS011;61166;54.228;37.632;2023-08-20T10:17:17;121.28;;;95.85;;
72974;SDS011;61166;54.228;37.632;2023-08-20T10:19:44;114.60;;;84.13;;
72974;SDS011;61166;54.228;37.632;2023-08-20T10:22:13;166.60;;;125.28;;
72974;SDS011;61166;54.228;37.632;2023-08-20T10:24:40;146.63;;;97.93;;
72974;SDS011;61166;54.228;37.632;2023-08-20T10:27:12;157.13;;;104.15;;
72974;SDS011;61166;54.228;37.632;2023-08-20T10:29:39;162.35;;;107.57;;
72974;SDS011;61166;54.228;37.632;2023-08-20T10:32:11;184.98;;;112.07;;
72974;SDS011;61166;54.228;37.632;2023-08-20T10:34:40;201.57;;;128.80;;
72974;SDS011;61166;54.228;37.632;2023-08-20T10:37:10;185.93;;;106.83;;
72974;SDS011;61166;54.228;37.632;2023-08-20T10:39:37;204.85;;;122.20;;
72974;SDS011;61166;54.228;37.632;2023-08-20T10:42:49;186.55;;;113.55;;
72974;SDS011;61166;54.228;37.632;2023-08-20T10:45:00;201.55;;;114.22;;
72974;SDS011;61166;54.228;37.632;2023-08-20T10:47:36;202.85;;;115.82;;
72974;SDS011;61166;54.228;37.632;2023-08-20T10:50:04;220.23;;;126.07;;
72974;SDS011;61166;54.228;37.632;2023-08-20T10:52:31;196.18;;;115.63;;
72974;SDS011;61166;54.228;37.632;2023-08-20T10:54:57;185.15;;;109.07;;
72974;SDS011;61166;54.228;37.632;2023-08-20T10:57:32;184.85;;;112.45;;
72974;SDS011;61166;54.228;37.632;2023-08-20T11:00:02;168.23;;;99.60;;
72974;SDS011;61166;54.228;37.632;2023-08-20T11:02:30;172.50;;;100.77;;
72974;SDS011;61166;54.228;37.632;2023-08-20T11:04:57;180.98;;;113.75;;
72974;SDS011;61166;54.228;37.632;2023-08-20T11:07:24;152.68;;;96.82;;
72974;SDS011;61166;54.228;37.632;2023-08-20T11:09:51;203.35;;;117.75;;
72974;SDS011;61166;54.228;37.632;2023-08-20T11:12:19;183.23;;;108.30;;
72974;SDS011;61166;54.228;37.632;2023-08-20T11:14:46;198.23;;;119.93;;
72974;SDS011;61166;54.228;37.632;2023-08-20T11:17:13;180.65;;;111.95;;
72974;SDS011;61166;54.228;37.632;2023-08-20T11:19:40;178.73;;;109.20;;
72974;SDS011;61166;54.228;37.632;2023-08-20T11:22:09;158.88;;;98.60;;
72974;SDS011;61166;54.228;37.632;2023-08-20T11:24:35;165.20;;;98.10;;
72974;SDS011;61166;54.228;37.632;2023-08-20T11:27:02;170.87;;;100.37;;
72974;SDS011;61166;54.228;37.632;2023-08-20T11:29:29;158.02;;;94.35;;
72974;SDS011;61166;54.228;37.632;2023-08-20T11:31:55;171.75;;;106.78;;
72974;SDS011;61166;54.228;37.632;2023-08-20T11:34:22;259.60;;;120.53;;
72974;SDS011;61166;54.228;37.632;2023-08-20T11:36:49;291.83;;;127.47;;
72974;SDS011;61166;54.228;37.632;2023-08-20T11:39:15;265.10;;;121.40;;
72974;SDS011;61166;54.228;37.632;2023-08-20T11:41:43;228.25;;;112.00;;
72974;SDS011;61166;54.228;37.632;2023-08-20T11:44:10;224.57;;;112.55;;
72974;SDS011;61166;54.228;37.632;2023-08-20T11:46:43;187.20;;;100.75;;
72974;SDS011;61166;54.228;37.632;2023-08-20T11:49:11;178.60;;;101.78;;
72974;SDS011;61166;54.228;37.632;2023-08-20T11:51:39;188.63;;;100.30;;
72974;SDS011;61166;54.228;37.632;2023-08-20T11:54:12;171.95;;;96.45;;
72974;SDS011;61166;54.228;37.632;2023-08-20T11:56:47;172.15;;;97.28;;
72974;SDS011;61166;54.228;37.632;2023-08-20T11:59:16;172.77;;;96.70;;
72974;SDS011;61166;54.228;37.632;2023-08-20T12:01:59;188.77;;;100.43;;
72974;SDS011;61166;54.228;37.632;2023-08-20T12:04:29;344.97;;;136.63;;
72974;SDS011;61166;54.228;37.632;2023-08-20T12:07:04;221.73;;;106.90;;
72974;SDS011;61166;54.228;37.632;2023-08-20T12:09:32;225.52;;;107.47;;
72974;SDS011;61166;54.228;37.632;2023-08-20T12:11:59;216.10;;;104.20;;
72974;SDS011;61166;54.228;37.632;2023-08-20T12:14:27;241.45;;;109.85;;
72974;SDS011;61166;54.228;37.632;2023-08-20T12:16:54;272.60;;;116.47;;
72974;SDS011;61166;54.228;37.632;2023-08-20T12:19:21;440.35;;;153.68;;
72974;SDS011;61166;54.228;37.632;2023-08-20T12:21:48;335.17;;;130.95;;
72974;SDS011;61166;54.228;37.632;2023-08-20T12:24:14;332.58;;;130.27;;
72974;SDS011;61166;54.228;37.632;2023-08-20T12:26:41;343.20;;;132.43;;
72974;SDS011;61166;54.228;37.632;2023-08-20T12:29:08;357.43;;;136.57;;
72974;SDS011;61166;54.228;37.632;2023-08-20T12:31:35;359.67;;;138.18;;
72974;SDS011;61166;54.228;37.632;2023-08-20T12:34:02;372.38;;;141.48;;
72974;SDS011;61166;54.228;37.632;2023-08-20T12:36:29;387.85;;;142.90;;
72974;SDS011;61166;54.228;37.632;2023-08-20T12:38:56;384.83;;;141.13;;
72974;SDS011;61166;54.228;37.632;2023-08-20T12:41:22;377.87;;;140.50;;
72974;SDS011;61166;54.228;37.632;2023-08-20T12:43:49;461.15;;;159.85;;
72974;SDS011;61166;54.228;37.632;2023-08-20T12:46:16;463.27;;;162.57;;
72974;SDS011;61166;54.228;37.632;2023-08-20T12:48:43;449.80;;;156.68;;
72974;SDS011;61166;54.228;37.632;2023-08-20T12:51:10;429.30;;;152.00;;
72974;SDS011;61166;54.228;37.632;2023-08-20T12:53:37;419.87;;;149.57;;
72974;SDS011;61166;54.228;37.632;2023-08-20T12:56:05;561.70;;;195.95;;
72974;SDS011;61166;54.228;37.632;2023-08-20T12:58:33;546.30;;;191.13;;
72974;SDS011;61166;54.228;37.632;2023-08-20T13:00:59;565.50;;;197.70;;
72974;SDS011;61166;54.228;37.632;2023-08-20T13:03:26;584.03;;;205.88;;
72974;SDS011;61166;54.228;37.632;2023-08-20T13:05:53;640.13;;;228.30;;
72974;SDS011;61166;54.228;37.632;2023-08-20T13:08:20;632.33;;;224.95;;
72974;SDS011;61166;54.228;37.632;2023-08-20T13:10:50;656.20;;;233.73;;
72974;SDS011;61166;54.228;37.632;2023-08-20T13:13:21;668.65;;;239.95;;
72974;SDS011;61166;54.228;37.632;2023-08-20T13:15:50;667.08;;;237.93;;
72974;SDS011;61166;54.228;37.632;2023-08-20T13:18:18;690.77;;;246.97;;
72974;SDS011;61166;54.228;37.632;2023-08-20T13:20:44;698.95;;;250.82;;
72974;SDS011;61166;54.228;37.632;2023-08-20T13:23:11;674.80;;;242.32;;
72974;SDS011;61166;54.228;37.632;2023-08-20T13:25:38;652.83;;;232.65;;
72974;SDS011;61166;54.228;37.632;2023-08-20T13:28:04;631.70;;;223.32;;
72974;SDS011;61166;54.228;37.632;2023-08-20T13:30:31;606.20;;;214.30;;
72974;SDS011;61166;54.228;37.632;2023-08-20T13:32:57;594.05;;;210.18;;
72974;SDS011;61166;54.228;37.632;2023-08-20T13:35:24;617.25;;;219.32;;
72974;SDS011;61166;54.228;37.632;2023-08-20T13:37:51;611.00;;;214.82;;
72974;SDS011;61166;54.228;37.632;2023-08-20T13:40:17;624.05;;;222.65;;
72974;SDS011;61166;54.228;37.632;2023-08-20T13:42:44;627.33;;;220.37;;
72974;SDS011;61166;54.228;37.632;2023-08-20T13:45:11;622.10;;;219.82;;
72974;SDS011;61166;54.228;37.632;2023-08-20T13:47:37;631.17;;;224.30;;
72974;SDS011;61166;54.228;37.632;2023-08-20T13:50:04;643.88;;;227.85;;
72974;SDS011;61166;54.228;37.632;2023-08-20T13:52:31;654.67;;;233.90;;
72974;SDS011;61166;54.228;37.632;2023-08-20T13:54:58;634.03;;;226.67;;
72974;SDS011;61166;54.228;37.632;2023-08-20T13:57:24;641.03;;;230.98;;
72974;SDS011;61166;54.228;37.632;2023-08-20T13:59:52;624.72;;;224.52;;
72974;SDS011;61166;54.228;37.632;2023-08-20T14:02:19;606.50;;;217.23;;
72974;SDS011;61166;54.228;37.632;2023-08-20T14:04:45;563.80;;;198.88;;